Página principal
METAR-TAF:

METAR-TAF

Aeroportos :

Ouagadougou, Burkina Faso

latitude: 12-21N, longitude: 001-31W, altura: 316 m

Observação actual do tempo

O boletim foi feito há 1 hora e 8 minutos, às 18:00 UTC
Vento 5 kt de nor-nordeste
Temperatura 32°C
Humidade 6%
Pressão 1010 hPa
Visibilidade: 8000 m

METAR: DFFD 231800Z 02005KT 8000 NSC 32/M10 Q1010 NOSIG

Hora: 19:08 (19:08 UTC)

Previsão

O boletim foi feito há 2 horas e 8 minutos, às 17:00 UTC
Previsão válida de 23 às 18 UTC a 24 às 24 UTC
Vento 10 kt de nor-nordeste
Visibilidade: 8000 m
Tornando-se
de 24 às 04 UTC a 24 às 06 UTC
Visibilidade: 3500 m
poeira extensa

TAF: DFFD 231700Z 2318/2424 02010KT 8000 NSC BECMG 2404/2406 3500 DU

Observações e previsões do tempo de mais de 4000 aeroportos (mensagens METAR e TAF).

As estações disponíveis são os pontos amarelos e vermelhos sobre o mapa.

Mova o rato sobre o mapa para ver o nome da estação.

Depois clique no ponto para visualizar as observações e previsões meteorológicas.

Para alterar o mapa : clique nos botões verdes com uma cruz preta para aumentar o zoom; no botão verde com uma pitada de zoom; ou nas setas verdes para mapas adjacentes.


METAR-TAF: